KBPT/BPT METAR and TAF weather

Enter ICAO airport designator
Station Type Date Time Source
KBPT METAR 2018/07/21 03:53 UTC NOAA

KBPT 210353Z AUTO 21006KT 10SM CLR 28/26 A2996 RMK AO2 SLP146 T02780256


Station Type Date Time Source
KBPT Decoded METAR 2018/07/21 03:53 UTC NOAA

SOUTHEAST TEXAS RGNL AIRPORT, TX, United States (KBPT) 29-95N 094-08W 5M
Jul 20, 2018 - 11:53 PM EDT / 2018.07.21 0353 UTC
Wind: from the SSW (210 degrees) at 7 MPH (6 KT):0
Visibility: 10 mile(s):0
Sky conditions: clear
Temperature: 82.0 F (27.8 C)
Dew Point: 78.1 F (25.6 C)
Relative Humidity: 87%
Pressure (altimeter): 29.96 in. Hg (1014 hPa)
ob: KBPT 210353Z AUTO 21006KT 10SM CLR 28/26 A2996 RMK AO2 SLP146 T02780256
cycle: 4

Station Type Date Time Source
KBPT TAF 2018/07/20 18:22 UTC NOAA

TAF KBPT 201720Z 2018/2118 24009KT P6SM FEW050
FM210900 25005KT P6SM SCT015


Example: see airport list